createdAt,value
2019-06-26T00:00:23.009Z,101473.52
2019-06-26T00:02:53.819Z,101480.09
2019-06-26T00:05:24.793Z,101470.06
2019-06-26T00:07:56.773Z,101467.28
2019-06-26T00:10:27.448Z,101470.70
2019-06-26T00:12:58.576Z,101473.73
2019-06-26T00:15:29.408Z,101475.16
2019-06-26T00:18:00.231Z,101471.81
2019-06-26T00:20:31.004Z,101474.38
2019-06-26T00:23:02.452Z,101477.34
2019-06-26T00:25:33.344Z,101476.27
2019-06-26T00:28:04.625Z,101473.63
2019-06-26T00:30:36.580Z,101481.18
2019-06-26T00:33:07.406Z,101473.17
2019-06-26T00:35:38.148Z,101475.55
2019-06-26T00:38:08.953Z,101475.77
2019-06-26T00:40:39.824Z,101470.96
2019-06-26T00:43:10.731Z,101471.19
2019-06-26T00:45:42.043Z,101470.35
2019-06-26T00:48:12.717Z,101473.05
2019-06-26T00:50:43.411Z,101476.92
2019-06-26T00:53:14.713Z,101476.85
2019-06-26T00:55:45.691Z,101479.30
2019-06-26T00:58:18.226Z,101477.06
2019-06-26T01:00:52.004Z,101470.31
2019-06-26T01:03:22.739Z,101471.91
2019-06-26T01:05:53.781Z,101473.98
2019-06-26T01:08:25.625Z,101470.48
2019-06-26T01:10:56.704Z,101467.93
2019-06-26T01:13:28.046Z,101467.30
2019-06-26T01:15:58.850Z,101465.84
2019-06-26T01:18:30.175Z,101466.42
2019-06-26T01:21:01.335Z,101471.88
2019-06-26T01:23:32.253Z,101472.57
2019-06-26T01:26:03.301Z,101469.00
2019-06-26T01:28:34.725Z,101462.61
2019-06-26T01:31:06.027Z,101459.80
2019-06-26T01:33:37.864Z,101456.00
2019-06-26T01:36:09.815Z,101458.21
2019-06-26T01:38:41.148Z,101458.38
2019-06-26T01:41:11.996Z,101454.92
2019-06-26T01:43:43.312Z,101455.27
2019-06-26T01:46:14.148Z,101452.44
2019-06-26T01:48:45.118Z,101451.23
2019-06-26T01:51:15.969Z,101452.59
2019-06-26T01:53:46.840Z,101449.77
2019-06-26T01:56:17.807Z,101447.31
2019-06-26T01:58:48.623Z,101452.62
2019-06-26T02:01:19.332Z,101447.81
2019-06-26T02:03:50.244Z,101454.74
2019-06-26T02:06:21.007Z,101456.72
2019-06-26T02:08:51.944Z,101452.91
2019-06-26T02:11:22.726Z,101449.83
2019-06-26T02:13:53.515Z,101449.33
2019-06-26T02:16:26.019Z,101448.81
2019-06-26T02:19:01.534Z,101449.09
2019-06-26T02:21:33.610Z,101451.02
2019-06-26T02:24:04.478Z,101452.27
2019-06-26T02:26:36.019Z,101453.89
2019-06-26T02:29:07.140Z,101455.70
2019-06-26T02:31:38.622Z,101456.44
2019-06-26T02:34:09.347Z,101460.38
2019-06-26T02:36:40.339Z,101460.27
2019-06-26T02:39:11.319Z,101456.07
2019-06-26T02:41:42.183Z,101459.53
2019-06-26T02:44:13.407Z,101450.03
2019-06-26T02:46:44.116Z,101450.66
2019-06-26T02:49:14.841Z,101450.16
2019-06-26T02:51:45.691Z,101449.43
2019-06-26T02:54:16.816Z,101445.62
2019-06-26T02:56:47.605Z,101446.58
2019-06-26T02:59:18.335Z,101444.30
2019-06-26T03:01:49.092Z,101450.87
2019-06-26T03:04:19.969Z,101455.30
2019-06-26T03:06:50.966Z,101456.24
2019-06-26T03:09:22.529Z,101447.22
2019-06-26T03:11:53.386Z,101449.75
2019-06-26T03:14:24.818Z,101441.91
2019-06-26T03:16:55.710Z,101444.37
2019-06-26T03:19:27.280Z,101448.14
2019-06-26T03:21:58.029Z,101441.58
2019-06-26T03:24:28.705Z,101451.25
2019-06-26T03:26:59.441Z,101445.09
2019-06-26T03:29:30.325Z,101453.28
2019-06-26T03:32:01.056Z,101448.03
2019-06-26T03:34:32.433Z,101444.80
2019-06-26T03:37:03.389Z,101455.76
2019-06-26T03:39:34.407Z,101445.00
2019-06-26T03:42:06.509Z,101443.00
2019-06-26T03:44:38.045Z,101445.27
2019-06-26T03:47:09.184Z,101434.68
2019-06-26T03:49:39.921Z,101445.38
2019-06-26T03:52:12.533Z,101441.20
2019-06-26T03:54:43.289Z,101446.70
2019-06-26T03:57:14.202Z,101440.30
2019-06-26T03:59:45.364Z,101444.14
2019-06-26T04:02:16.120Z,101437.06
2019-06-26T04:04:46.846Z,101436.70
2019-06-26T04:07:17.715Z,101437.45
2019-06-26T04:09:49.377Z,101441.11
2019-06-26T04:12:20.170Z,101447.95
2019-06-26T04:14:51.313Z,101449.00
2019-06-26T04:17:22.412Z,101441.56
2019-06-26T04:19:53.150Z,101446.15
2019-06-26T04:22:24.137Z,101443.94
2019-06-26T04:24:56.176Z,101441.72
2019-06-26T04:27:27.038Z,101442.61
2019-06-26T04:29:57.756Z,101444.41
2019-06-26T04:32:28.483Z,101433.86
2019-06-26T04:34:59.221Z,101432.88
2019-06-26T04:37:30.603Z,101435.27
2019-06-26T04:40:01.254Z,101433.53
2019-06-26T04:42:32.121Z,101433.86
2019-06-26T04:45:03.296Z,101436.47
2019-06-26T04:47:34.560Z,101435.47
2019-06-26T04:50:10.128Z,101430.37
2019-06-26T04:52:41.785Z,101432.12
2019-06-26T04:55:14.026Z,101432.06
2019-06-26T04:57:45.498Z,101426.94
2019-06-26T05:00:17.367Z,101427.17
2019-06-26T05:02:48.259Z,101429.65
2019-06-26T05:05:19.057Z,101424.27
2019-06-26T05:07:49.906Z,101415.92
2019-06-26T05:10:21.989Z,101418.36
2019-06-26T05:12:52.838Z,101413.66
2019-06-26T05:15:23.587Z,101414.79
2019-06-26T05:17:54.917Z,101413.73
2019-06-26T05:20:27.077Z,101410.47
2019-06-26T05:22:57.912Z,101404.95
2019-06-26T05:25:28.758Z,101404.58
2019-06-26T05:27:59.475Z,101404.16
2019-06-26T05:30:30.361Z,101402.27
2019-06-26T05:33:01.291Z,101397.23
2019-06-26T05:35:35.010Z,101388.71
2019-06-26T05:38:04.446Z,101403.84
2019-06-26T05:40:35.191Z,101393.34
2019-06-26T05:43:06.141Z,101398.31
2019-06-26T05:45:36.862Z,101395.34
2019-06-26T05:48:07.968Z,101399.33
2019-06-26T05:50:38.688Z,101393.87
2019-06-26T05:53:09.640Z,101394.39
2019-06-26T05:55:40.414Z,101389.77
2019-06-26T05:58:11.409Z,101394.05
2019-06-26T06:00:42.245Z,101392.16
2019-06-26T06:03:13.006Z,101389.94
2019-06-26T06:05:45.253Z,101388.42
2019-06-26T06:08:16.178Z,101390.55
2019-06-26T06:10:47.225Z,101386.23
2019-06-26T06:13:18.043Z,101392.05
2019-06-26T06:15:49.749Z,101390.15
2019-06-26T06:18:21.994Z,101396.70
2019-06-26T06:20:52.924Z,101389.04
2019-06-26T06:23:23.819Z,101386.74
2019-06-26T06:25:55.579Z,101392.56
2019-06-26T06:28:26.486Z,101389.02
2019-06-26T06:30:57.549Z,101390.73
2019-06-26T06:33:28.543Z,101388.25
2019-06-26T06:35:59.384Z,101392.17
2019-06-26T06:38:30.193Z,101394.58
2019-06-26T06:41:01.179Z,101394.08
2019-06-26T06:43:32.136Z,101394.48
2019-06-26T06:46:03.237Z,101391.41
2019-06-26T06:48:34.187Z,101385.06
2019-06-26T06:51:07.642Z,101391.69
2019-06-26T06:53:38.405Z,101394.39
2019-06-26T06:56:09.386Z,101387.38
2019-06-26T06:58:41.306Z,101385.20
2019-06-26T07:01:12.161Z,101384.69
2019-06-26T07:03:43.048Z,101384.77
2019-06-26T07:06:14.042Z,101383.25
2019-06-26T07:08:44.875Z,101388.09
2019-06-26T07:11:16.680Z,101385.44
2019-06-26T07:13:47.866Z,101382.06
2019-06-26T07:16:19.192Z,101383.14
2019-06-26T07:18:50.238Z,101372.19
2019-06-26T07:21:21.474Z,101378.91
2019-06-26T07:23:52.527Z,101383.20
2019-06-26T07:26:23.501Z,101372.53
2019-06-26T07:28:54.871Z,101378.94
2019-06-26T07:31:25.511Z,101369.36
2019-06-26T07:33:57.736Z,101375.20
2019-06-26T07:36:28.632Z,101371.63
2019-06-26T07:38:59.811Z,101362.66
2019-06-26T07:41:31.186Z,101361.41
2019-06-26T07:44:02.719Z,101360.34
2019-06-26T07:46:34.046Z,101364.70
2019-06-26T07:49:05.181Z,101359.02
2019-06-26T07:51:36.020Z,101360.13
2019-06-26T07:54:06.939Z,101357.61
2019-06-26T07:56:37.736Z,101356.13
2019-06-26T07:59:11.274Z,101359.41
2019-06-26T08:01:42.198Z,101350.06
2019-06-26T08:04:13.415Z,101355.16
2019-06-26T08:06:48.268Z,101347.47
2019-06-26T08:09:19.132Z,101336.79
2019-06-26T08:11:50.031Z,101337.98
2019-06-26T08:14:21.004Z,101335.08
2019-06-26T08:16:52.378Z,101338.03
2019-06-26T08:19:23.651Z,101338.13
2019-06-26T08:21:54.506Z,101327.37
2019-06-26T08:24:25.533Z,101329.64
2019-06-26T08:26:56.382Z,101330.12
2019-06-26T08:29:27.301Z,101324.58
2019-06-26T08:31:59.892Z,101334.18
2019-06-26T08:34:31.469Z,101321.61
2019-06-26T08:37:02.550Z,101306.94
2019-06-26T08:39:33.956Z,101308.07
2019-06-26T08:42:05.286Z,101310.10
2019-06-26T08:44:36.328Z,101298.59
2019-06-26T08:47:07.415Z,101298.83
2019-06-26T08:49:38.714Z,101309.27
2019-06-26T08:52:09.680Z,101292.91
2019-06-26T08:54:41.572Z,101296.62
2019-06-26T08:57:13.160Z,101297.11
2019-06-26T08:59:44.366Z,101299.73
2019-06-26T09:02:15.300Z,101291.48
2019-06-26T09:04:46.585Z,101297.70
2019-06-26T09:07:17.556Z,101303.36
2019-06-26T09:09:48.941Z,101303.06
2019-06-26T09:12:21.073Z,101298.88
2019-06-26T09:14:53.037Z,101295.50
2019-06-26T09:17:24.348Z,101287.63
2019-06-26T09:19:55.381Z,101288.13
2019-06-26T09:22:26.530Z,101288.42
2019-06-26T09:24:57.864Z,101277.05
2019-06-26T09:27:29.690Z,101281.44
2019-06-26T09:30:01.048Z,101279.47
2019-06-26T09:32:31.998Z,101269.61
2019-06-26T09:35:03.399Z,101269.98
2019-06-26T09:37:35.083Z,101268.45
2019-06-26T09:40:07.274Z,101270.41
2019-06-26T09:42:38.182Z,101267.94
2019-06-26T09:45:10.130Z,101259.79
2019-06-26T09:47:41.040Z,101257.67
2019-06-26T09:50:12.748Z,101255.39
2019-06-26T09:52:46.065Z,101249.65
2019-06-26T09:55:20.627Z,101253.58
2019-06-26T09:57:51.551Z,101249.89
2019-06-26T10:00:24.590Z,101244.20
2019-06-26T10:02:55.499Z,101244.98
2019-06-26T10:05:26.405Z,101237.30
2019-06-26T10:07:57.298Z,101233.34
2019-06-26T10:10:29.193Z,101234.23
2019-06-26T10:13:02.119Z,101228.00
2019-06-26T10:15:33.142Z,101232.08
2019-06-26T10:18:05.336Z,101224.60
2019-06-26T10:20:36.152Z,101229.09
2019-06-26T10:23:07.271Z,101222.39
2019-06-26T10:25:38.340Z,101220.16
2019-06-26T10:28:09.284Z,101223.73
2019-06-26T10:30:40.645Z,101209.03
2019-06-26T10:33:11.557Z,101214.55
2019-06-26T10:35:42.412Z,101219.94
2019-06-26T10:38:13.820Z,101214.98
2019-06-26T10:40:45.444Z,101205.35
2019-06-26T10:43:34.842Z,101195.69
2019-06-26T10:46:06.649Z,101185.92
2019-06-26T10:48:37.629Z,101196.29
2019-06-26T10:51:08.582Z,101187.37
2019-06-26T10:53:39.533Z,101190.45
2019-06-26T10:56:10.749Z,101185.41
2019-06-26T10:58:44.524Z,101187.27
2019-06-26T11:01:15.794Z,101180.60
2019-06-26T11:03:47.636Z,101170.41
2019-06-26T11:06:19.185Z,101158.03
2019-06-26T11:08:50.759Z,101165.40
2019-06-26T11:11:21.701Z,101161.23
2019-06-26T11:13:52.852Z,101160.05
2019-06-26T11:16:24.783Z,101149.53
2019-06-26T11:18:56.458Z,101143.53
2019-06-26T11:21:27.907Z,101137.95
2019-06-26T11:23:59.101Z,101137.88
2019-06-26T11:26:30.181Z,101138.14
2019-06-26T11:29:01.390Z,101136.31
2019-06-26T11:31:32.217Z,101129.34
2019-06-26T11:34:03.577Z,101128.85
2019-06-26T11:36:35.512Z,101122.22
2019-06-26T11:39:07.675Z,101112.77
2019-06-26T11:41:39.014Z,101123.17
2019-06-26T11:44:09.785Z,101114.65
2019-06-26T11:46:40.773Z,101102.75
2019-06-26T11:49:12.185Z,101104.23
2019-06-26T11:51:43.864Z,101100.27
2019-06-26T11:54:14.899Z,101101.73
2019-06-26T11:56:45.975Z,101090.41
2019-06-26T11:59:17.503Z,101089.53
2019-06-26T12:01:48.959Z,101087.72
2019-06-26T12:04:20.963Z,101089.30
2019-06-26T12:06:53.356Z,101090.69
2019-06-26T12:09:24.369Z,101090.30
2019-06-26T12:11:55.310Z,101085.02
2019-06-26T12:14:28.506Z,101077.08
2019-06-26T12:16:59.375Z,101068.66
2019-06-26T12:19:30.467Z,101071.97
2019-06-26T12:22:01.230Z,101067.16
2019-06-26T12:24:32.526Z,101065.19
2019-06-26T12:27:03.461Z,101057.73
2019-06-26T12:29:34.710Z,101061.94
2019-06-26T12:32:06.214Z,101063.70
2019-06-26T12:34:37.278Z,101048.84
2019-06-26T12:37:08.088Z,101046.14
2019-06-26T12:39:38.936Z,101047.34
2019-06-26T12:42:09.825Z,101038.89
2019-06-26T12:44:40.921Z,101037.77
2019-06-26T12:47:15.726Z,101034.84
2019-06-26T12:49:46.665Z,101039.38
2019-06-26T12:52:17.993Z,101043.14
2019-06-26T12:54:49.873Z,101029.05
2019-06-26T12:57:21.034Z,101026.27
2019-06-26T12:59:57.749Z,101023.39
2019-06-26T13:02:25.747Z,101030.50
2019-06-26T13:04:56.646Z,101015.77
2019-06-26T13:07:27.421Z,101018.12
2019-06-26T13:09:58.266Z,101015.30
2019-06-26T13:12:29.633Z,101010.02
2019-06-26T13:15:01.776Z,101006.33
2019-06-26T13:17:34.297Z,100991.30
2019-06-26T13:20:10.692Z,101003.85
2019-06-26T13:22:41.950Z,101005.86
2019-06-26T13:25:15.766Z,100997.39
2019-06-26T13:27:45.964Z,100997.50
2019-06-26T13:30:32.695Z,100992.48
2019-06-26T13:33:04.041Z,100985.48
2019-06-26T13:35:35.333Z,100972.82
2019-06-26T13:38:06.534Z,100970.97
2019-06-26T13:40:40.790Z,100975.92
2019-06-26T13:43:10.696Z,100978.34
2019-06-26T13:45:42.334Z,100976.73
2019-06-26T13:48:13.487Z,100970.52
2019-06-26T13:50:44.476Z,100977.25
2019-06-26T13:53:16.468Z,100971.57
2019-06-26T13:55:47.348Z,100977.58
2019-06-26T13:58:18.303Z,100972.66
2019-06-26T14:00:49.070Z,100963.52
2019-06-26T14:03:23.478Z,100956.38
2019-06-26T14:06:01.658Z,100959.02
2019-06-26T14:08:33.036Z,100957.63
2019-06-26T14:11:07.303Z,100954.66
2019-06-26T14:13:41.658Z,100966.91
2019-06-26T14:16:11.351Z,100952.84
2019-06-26T14:18:43.938Z,100946.14
2019-06-26T14:21:24.964Z,100954.33
2019-06-26T14:23:49.758Z,100951.87
2019-06-26T14:26:20.895Z,100955.50
2019-06-26T14:28:54.177Z,100946.08
2019-06-26T14:31:25.541Z,100943.80
2019-06-26T14:33:56.884Z,100943.55
2019-06-26T14:36:28.288Z,100940.19
2019-06-26T14:38:59.363Z,100949.17
2019-06-26T14:41:30.226Z,100946.62
2019-06-26T14:44:01.095Z,100939.77
2019-06-26T14:46:32.424Z,100924.84
2019-06-26T14:49:04.374Z,100936.75
2019-06-26T14:51:43.849Z,100927.56
2019-06-26T14:54:09.115Z,100938.84
2019-06-26T14:56:40.534Z,100926.95
2019-06-26T14:59:12.154Z,100931.87
2019-06-26T15:01:43.581Z,100918.50
2019-06-26T15:04:14.807Z,100929.92
2019-06-26T15:06:45.820Z,100931.26
2019-06-26T15:09:16.702Z,100910.98
2019-06-26T15:11:47.643Z,100923.47
2019-06-26T15:14:18.626Z,100918.70
2019-06-26T15:16:50.813Z,100923.75
2019-06-26T15:19:21.492Z,100921.78
2019-06-26T15:21:58.365Z,100922.22
2019-06-26T15:24:25.115Z,100917.94
2019-06-26T15:26:55.944Z,100918.36
2019-06-26T15:29:26.770Z,100924.82
2019-06-26T15:31:57.898Z,100912.98
2019-06-26T15:34:28.988Z,100907.67
2019-06-26T15:37:00.136Z,100902.63
2019-06-26T15:39:31.067Z,100901.52
2019-06-26T15:42:01.798Z,100895.67
2019-06-26T15:44:32.528Z,100891.64
2019-06-26T15:47:04.982Z,100891.23
2019-06-26T15:49:35.730Z,100891.45
2019-06-26T15:52:14.928Z,100881.84
2019-06-26T15:54:39.195Z,100885.57
2019-06-26T15:57:10.146Z,100883.38
2019-06-26T15:59:42.259Z,100886.57
2019-06-26T16:02:13.313Z,100885.31
2019-06-26T16:04:44.480Z,100864.77
2019-06-26T16:07:16.390Z,100878.97
2019-06-26T16:09:48.067Z,100878.56
2019-06-26T16:12:19.153Z,100877.43
2019-06-26T16:14:50.042Z,100874.64
2019-06-26T16:17:35.634Z,100873.54
2019-06-26T16:20:07.904Z,100862.98
2019-06-26T16:22:40.589Z,100873.30
2019-06-26T16:25:11.589Z,100876.38
2019-06-26T16:27:42.529Z,100874.89
2019-06-26T16:30:13.614Z,100844.40
2019-06-26T16:32:44.542Z,100844.40
2019-06-26T16:35:15.518Z,100866.31
2019-06-26T16:37:47.434Z,100867.69
2019-06-26T16:40:20.025Z,100860.86
2019-06-26T16:42:51.424Z,100861.02
2019-06-26T16:45:22.482Z,100856.27
2019-06-26T16:47:53.337Z,100859.80
2019-06-26T16:50:24.045Z,100858.13
2019-06-26T16:52:54.950Z,100860.52
2019-06-26T16:55:25.967Z,100856.94
2019-06-26T16:57:56.841Z,100855.94
2019-06-26T17:00:27.636Z,100852.25
2019-06-26T17:02:58.503Z,100855.14
2019-06-26T17:05:29.901Z,100852.24
2019-06-26T17:08:00.634Z,100856.74
2019-06-26T17:10:31.465Z,100856.59
2019-06-26T17:13:04.298Z,100859.05
2019-06-26T17:15:35.380Z,100857.44
2019-06-26T17:18:07.054Z,100851.62
2019-06-26T17:20:38.944Z,100850.28
2019-06-26T17:23:10.932Z,100848.50
2019-06-26T17:25:42.445Z,100843.02
2019-06-26T17:28:13.751Z,100843.89
2019-06-26T17:30:45.391Z,100846.08
2019-06-26T17:33:17.494Z,100843.60
2019-06-26T17:35:48.659Z,100833.85
2019-06-26T17:38:19.341Z,100836.56
2019-06-26T17:40:51.855Z,100835.25
2019-06-26T17:43:25.923Z,100832.16
2019-06-26T17:45:59.055Z,100833.70
2019-06-26T17:48:31.297Z,100831.95
2019-06-26T17:51:03.141Z,100841.41
2019-06-26T17:53:34.133Z,100841.66
2019-06-26T17:56:05.207Z,100834.73
2019-06-26T17:58:36.110Z,100831.35
2019-06-26T18:01:07.238Z,100828.95
2019-06-26T18:03:39.108Z,100832.72
2019-06-26T18:06:09.948Z,100831.27
2019-06-26T18:08:41.229Z,100827.14
2019-06-26T18:11:12.075Z,100825.92
2019-06-26T18:13:42.961Z,100827.00
2019-06-26T18:16:13.743Z,100824.70
2019-06-26T18:18:44.864Z,100827.37
2019-06-26T18:21:15.958Z,100827.37
2019-06-26T18:23:47.201Z,100829.98
2019-06-26T18:26:18.516Z,100825.77
2019-06-26T18:28:49.475Z,100828.46
2019-06-26T18:31:21.451Z,100833.69
2019-06-26T18:33:52.565Z,100826.66
2019-06-26T18:36:23.653Z,100827.98
2019-06-26T18:38:54.530Z,100829.85
2019-06-26T18:41:25.518Z,100828.64
2019-06-26T18:43:56.344Z,100830.48
2019-06-26T18:46:27.543Z,100838.52
2019-06-26T18:48:58.811Z,100835.52
2019-06-26T18:51:30.454Z,100837.03
2019-06-26T18:54:04.352Z,100835.11
2019-06-26T18:56:35.613Z,100841.02
2019-06-26T18:59:08.063Z,100843.65
2019-06-26T19:01:40.535Z,100843.56
2019-06-26T19:04:13.694Z,100843.76
2019-06-26T19:06:44.944Z,100850.75
2019-06-26T19:09:17.414Z,100847.02
2019-06-26T19:11:48.596Z,100847.73
2019-06-26T19:14:19.911Z,100853.75
2019-06-26T19:16:50.959Z,100855.97
2019-06-26T19:19:21.951Z,100854.66
2019-06-26T19:21:55.086Z,100859.80
2019-06-26T19:24:26.096Z,100863.72
2019-06-26T19:26:57.228Z,100870.66
2019-06-26T19:29:28.109Z,100862.94
2019-06-26T19:32:00.154Z,100870.30
2019-06-26T19:34:31.144Z,100878.20
2019-06-26T19:37:02.640Z,100883.88
2019-06-26T19:39:33.602Z,100882.16
2019-06-26T19:42:04.755Z,100886.91
2019-06-26T19:44:35.845Z,100894.11
2019-06-26T19:47:08.730Z,100901.14
2019-06-26T19:49:40.202Z,100897.59
2019-06-26T19:52:11.891Z,100899.75
2019-06-26T19:54:43.009Z,100905.36
2019-06-26T19:57:14.182Z,100910.89
2019-06-26T19:59:44.827Z,100909.42
2019-06-26T20:02:15.618Z,100914.16
2019-06-26T20:04:48.325Z,100917.06
2019-06-26T20:07:19.414Z,100925.41
2019-06-26T20:09:50.398Z,100926.34
2019-06-26T20:12:21.749Z,100931.98
2019-06-26T20:14:52.924Z,100939.55
2019-06-26T20:17:25.016Z,100927.87
2019-06-26T20:19:56.871Z,100931.25
2019-06-26T20:22:27.669Z,100931.05
2019-06-26T20:25:01.488Z,100944.96
2019-06-26T20:27:33.135Z,100944.59
2019-06-26T20:30:09.419Z,100954.48
2019-06-26T20:32:39.375Z,100949.55
2019-06-26T20:35:10.577Z,100948.81
2019-06-26T20:37:41.711Z,100957.92
2019-06-26T20:40:12.798Z,100960.13
2019-06-26T20:42:46.364Z,100958.95
2019-06-26T20:45:17.712Z,100967.47
2019-06-26T20:47:48.943Z,100960.13
2019-06-26T20:50:19.734Z,100969.31
2019-06-26T20:52:50.910Z,100974.58
2019-06-26T20:55:21.699Z,100975.19
2019-06-26T20:57:53.335Z,100979.77
2019-06-26T21:00:24.412Z,100975.05
2019-06-26T21:02:57.900Z,100980.38
2019-06-26T21:05:29.565Z,100976.28
2019-06-26T21:08:00.433Z,100989.67
2019-06-26T21:10:31.304Z,100985.06
2019-06-26T21:13:02.268Z,100995.16
2019-06-26T21:15:34.096Z,101001.34
2019-06-26T21:18:05.327Z,101003.00
2019-06-26T21:20:37.090Z,101019.50
2019-06-26T21:23:18.011Z,101008.86
2019-06-26T21:25:40.697Z,101013.90
2019-06-26T21:28:11.598Z,101010.64
2019-06-26T21:30:42.943Z,101021.47
2019-06-26T21:33:13.886Z,101021.27
2019-06-26T21:35:45.955Z,101021.09
2019-06-26T21:38:16.894Z,101027.53
2019-06-26T21:40:48.119Z,101014.28
2019-06-26T21:43:19.304Z,101020.80
2019-06-26T21:45:51.569Z,101027.95
2019-06-26T21:48:22.840Z,101023.69
2019-06-26T21:50:54.036Z,101026.21
2019-06-26T21:53:25.167Z,101030.88
2019-06-26T21:56:14.052Z,101035.26
2019-06-26T21:59:03.683Z,101041.53
2019-06-26T22:01:52.461Z,101031.82
2019-06-26T22:04:41.806Z,101033.89
2019-06-26T22:07:29.513Z,101035.34
2019-06-26T22:10:01.899Z,101039.06
2019-06-26T22:12:34.448Z,101044.63
2019-06-26T22:15:06.603Z,101043.13
2019-06-26T22:17:39.809Z,101047.63
2019-06-26T22:20:12.645Z,101055.38
2019-06-26T22:22:44.913Z,101058.48
2019-06-26T22:25:16.205Z,101056.82
2019-06-26T22:27:47.235Z,101047.41
2019-06-26T22:30:18.915Z,101051.94
2019-06-26T22:32:49.646Z,101056.25
2019-06-26T22:35:20.311Z,101068.81
2019-06-26T22:37:50.948Z,101067.29
2019-06-26T22:40:23.742Z,101065.45
2019-06-26T22:42:54.749Z,101073.34
2019-06-26T22:45:25.736Z,101074.75
2019-06-26T22:47:56.907Z,101069.61
2019-06-26T22:50:27.851Z,101063.30
2019-06-26T22:52:58.816Z,101078.25
2019-06-26T22:55:29.500Z,101070.05
2019-06-26T22:58:00.436Z,101066.83
2019-06-26T23:00:31.379Z,101077.64
2019-06-26T23:03:02.382Z,101082.09
2019-06-26T23:05:33.570Z,101082.62
2019-06-26T23:08:04.706Z,101082.09
2019-06-26T23:10:35.680Z,101081.06
2019-06-26T23:13:09.476Z,101078.00
2019-06-26T23:15:39.299Z,101084.49
2019-06-26T23:18:10.314Z,101078.85
2019-06-26T23:20:41.903Z,101077.48
2019-06-26T23:23:12.878Z,101092.22
2019-06-26T23:25:43.786Z,101097.20
2019-06-26T23:28:14.610Z,101092.04
2019-06-26T23:30:45.599Z,101090.34
2019-06-26T23:33:16.488Z,101095.80
2019-06-26T23:35:47.371Z,101098.53
2019-06-26T23:38:18.077Z,101105.84
2019-06-26T23:40:48.825Z,101104.48
2019-06-26T23:43:19.633Z,101110.47
2019-06-26T23:45:51.255Z,101111.14
2019-06-26T23:48:22.123Z,101110.97
2019-06-26T23:50:52.793Z,101115.88
2019-06-26T23:53:24.021Z,101115.86
2019-06-26T23:55:54.668Z,101121.82
2019-06-26T23:58:25.472Z,101123.00
